sensor_id;sensor_type;location;lat;lon;timestamp;P1;durP1;ratioP1;P2;durP2;ratioP2
70576;SDS011;58138;43.138;24.702;2024-01-30T00:00:40;28.45;;;18.10;;
70576;SDS011;58138;43.138;24.702;2024-01-30T00:03:06;29.85;;;18.27;;
70576;SDS011;58138;43.138;24.702;2024-01-30T00:05:31;30.77;;;18.58;;
70576;SDS011;58138;43.138;24.702;2024-01-30T00:07:57;30.63;;;19.67;;
70576;SDS011;58138;43.138;24.702;2024-01-30T00:10:22;30.52;;;18.58;;
70576;SDS011;58138;43.138;24.702;2024-01-30T00:12:48;28.48;;;17.67;;
70576;SDS011;58138;43.138;24.702;2024-01-30T00:15:13;29.92;;;18.27;;
70576;SDS011;58138;43.138;24.702;2024-01-30T00:17:40;28.20;;;18.98;;
70576;SDS011;58138;43.138;24.702;2024-01-30T00:20:05;30.80;;;19.55;;
70576;SDS011;58138;43.138;24.702;2024-01-30T00:22:32;30.98;;;19.55;;
70576;SDS011;58138;43.138;24.702;2024-01-30T00:24:58;34.50;;;20.92;;
70576;SDS011;58138;43.138;24.702;2024-01-30T00:27:23;32.90;;;20.60;;
70576;SDS011;58138;43.138;24.702;2024-01-30T00:29:48;32.35;;;21.30;;
70576;SDS011;58138;43.138;24.702;2024-01-30T00:32:14;34.88;;;21.73;;
70576;SDS011;58138;43.138;24.702;2024-01-30T00:34:41;35.80;;;22.67;;
70576;SDS011;58138;43.138;24.702;2024-01-30T00:37:06;34.03;;;21.48;;
70576;SDS011;58138;43.138;24.702;2024-01-30T00:39:32;35.63;;;21.48;;
70576;SDS011;58138;43.138;24.702;2024-01-30T00:41:58;33.42;;;20.55;;
70576;SDS011;58138;43.138;24.702;2024-01-30T00:44:23;32.13;;;20.70;;
70576;SDS011;58138;43.138;24.702;2024-01-30T00:46:49;29.80;;;19.30;;
70576;SDS011;58138;43.138;24.702;2024-01-30T00:49:14;30.48;;;19.42;;
70576;SDS011;58138;43.138;24.702;2024-01-30T00:51:40;36.33;;;20.48;;
70576;SDS011;58138;43.138;24.702;2024-01-30T00:54:05;31.50;;;20.08;;
70576;SDS011;58138;43.138;24.702;2024-01-30T00:56:31;33.85;;;20.10;;
70576;SDS011;58138;43.138;24.702;2024-01-30T00:58:57;31.27;;;20.23;;
70576;SDS011;58138;43.138;24.702;2024-01-30T01:01:22;32.58;;;20.30;;
70576;SDS011;58138;43.138;24.702;2024-01-30T01:03:48;30.58;;;19.48;;
70576;SDS011;58138;43.138;24.702;2024-01-30T01:06:14;32.33;;;20.50;;
70576;SDS011;58138;43.138;24.702;2024-01-30T01:08:45;32.17;;;20.27;;
70576;SDS011;58138;43.138;24.702;2024-01-30T01:11:11;32.05;;;18.88;;
70576;SDS011;58138;43.138;24.702;2024-01-30T01:13:36;42.00;;;25.08;;
70576;SDS011;58138;43.138;24.702;2024-01-30T01:16:02;32.28;;;20.45;;
70576;SDS011;58138;43.138;24.702;2024-01-30T01:18:28;34.08;;;19.80;;
70576;SDS011;58138;43.138;24.702;2024-01-30T01:20:54;30.30;;;18.50;;
70576;SDS011;58138;43.138;24.702;2024-01-30T01:23:20;29.83;;;17.52;;
70576;SDS011;58138;43.138;24.702;2024-01-30T01:25:45;26.73;;;17.35;;
70576;SDS011;58138;43.138;24.702;2024-01-30T01:28:11;27.67;;;16.92;;
70576;SDS011;58138;43.138;24.702;2024-01-30T01:30:36;26.83;;;17.00;;
70576;SDS011;58138;43.138;24.702;2024-01-30T01:33:02;30.13;;;16.95;;
70576;SDS011;58138;43.138;24.702;2024-01-30T01:35:27;25.05;;;16.42;;
70576;SDS011;58138;43.138;24.702;2024-01-30T01:37:53;27.80;;;16.88;;
70576;SDS011;58138;43.138;24.702;2024-01-30T01:40:24;25.23;;;16.95;;
70576;SDS011;58138;43.138;24.702;2024-01-30T01:42:53;26.67;;;17.15;;
70576;SDS011;58138;43.138;24.702;2024-01-30T01:45:20;29.42;;;18.13;;
70576;SDS011;58138;43.138;24.702;2024-01-30T01:47:47;29.23;;;19.05;;
70576;SDS011;58138;43.138;24.702;2024-01-30T01:50:13;30.73;;;18.63;;
70576;SDS011;58138;43.138;24.702;2024-01-30T01:52:40;27.65;;;17.63;;
70576;SDS011;58138;43.138;24.702;2024-01-30T01:55:05;29.88;;;18.08;;
70576;SDS011;58138;43.138;24.702;2024-01-30T01:57:31;31.13;;;17.70;;
70576;SDS011;58138;43.138;24.702;2024-01-30T01:59:58;27.73;;;17.50;;
70576;SDS011;58138;43.138;24.702;2024-01-30T02:02:23;28.15;;;18.25;;
70576;SDS011;58138;43.138;24.702;2024-01-30T02:04:50;28.58;;;17.42;;
70576;SDS011;58138;43.138;24.702;2024-01-30T02:07:15;28.95;;;18.05;;
70576;SDS011;58138;43.138;24.702;2024-01-30T02:09:41;27.58;;;17.60;;
70576;SDS011;58138;43.138;24.702;2024-01-30T02:12:07;29.00;;;17.80;;
70576;SDS011;58138;43.138;24.702;2024-01-30T02:14:32;26.10;;;17.02;;
70576;SDS011;58138;43.138;24.702;2024-01-30T02:16:59;27.33;;;17.02;;
70576;SDS011;58138;43.138;24.702;2024-01-30T02:19:24;28.10;;;17.98;;
70576;SDS011;58138;43.138;24.702;2024-01-30T02:21:49;28.98;;;18.65;;
70576;SDS011;58138;43.138;24.702;2024-01-30T02:24:15;30.27;;;18.65;;
70576;SDS011;58138;43.138;24.702;2024-01-30T02:26:41;32.50;;;19.67;;
70576;SDS011;58138;43.138;24.702;2024-01-30T02:29:06;32.15;;;19.05;;
70576;SDS011;58138;43.138;24.702;2024-01-30T02:31:32;30.58;;;17.70;;
70576;SDS011;58138;43.138;24.702;2024-01-30T02:33:57;29.38;;;17.85;;
70576;SDS011;58138;43.138;24.702;2024-01-30T02:36:23;30.65;;;18.08;;
70576;SDS011;58138;43.138;24.702;2024-01-30T02:38:48;30.20;;;18.15;;
70576;SDS011;58138;43.138;24.702;2024-01-30T02:41:14;29.75;;;18.00;;
70576;SDS011;58138;43.138;24.702;2024-01-30T02:43:39;30.73;;;18.30;;
70576;SDS011;58138;43.138;24.702;2024-01-30T02:46:05;31.17;;;18.23;;
70576;SDS011;58138;43.138;24.702;2024-01-30T02:48:30;28.80;;;17.77;;
70576;SDS011;58138;43.138;24.702;2024-01-30T02:50:56;29.77;;;17.80;;
70576;SDS011;58138;43.138;24.702;2024-01-30T02:53:23;31.92;;;18.27;;
70576;SDS011;58138;43.138;24.702;2024-01-30T02:55:48;28.17;;;17.77;;
70576;SDS011;58138;43.138;24.702;2024-01-30T02:58:14;29.15;;;18.15;;
70576;SDS011;58138;43.138;24.702;2024-01-30T03:00:39;29.65;;;18.67;;
70576;SDS011;58138;43.138;24.702;2024-01-30T03:03:05;31.40;;;18.98;;
70576;SDS011;58138;43.138;24.702;2024-01-30T03:05:30;31.45;;;19.55;;
70576;SDS011;58138;43.138;24.702;2024-01-30T03:07:56;30.90;;;19.52;;
70576;SDS011;58138;43.138;24.702;2024-01-30T03:10:21;35.72;;;20.42;;
70576;SDS011;58138;43.138;24.702;2024-01-30T03:12:47;28.98;;;17.48;;
70576;SDS011;58138;43.138;24.702;2024-01-30T03:15:12;30.17;;;18.77;;
70576;SDS011;58138;43.138;24.702;2024-01-30T03:17:38;29.83;;;19.20;;
70576;SDS011;58138;43.138;24.702;2024-01-30T03:20:04;29.77;;;19.52;;
70576;SDS011;58138;43.138;24.702;2024-01-30T03:22:31;33.28;;;20.08;;
70576;SDS011;58138;43.138;24.702;2024-01-30T03:24:57;44.72;;;24.48;;
70576;SDS011;58138;43.138;24.702;2024-01-30T03:27:22;45.10;;;25.30;;
70576;SDS011;58138;43.138;24.702;2024-01-30T03:29:48;36.75;;;22.45;;
70576;SDS011;58138;43.138;24.702;2024-01-30T03:32:13;37.13;;;23.23;;
70576;SDS011;58138;43.138;24.702;2024-01-30T03:34:39;32.70;;;19.65;;
70576;SDS011;58138;43.138;24.702;2024-01-30T03:37:04;30.92;;;18.10;;
70576;SDS011;58138;43.138;24.702;2024-01-30T03:39:30;38.08;;;21.75;;
70576;SDS011;58138;43.138;24.702;2024-01-30T03:41:55;36.90;;;22.20;;
70576;SDS011;58138;43.138;24.702;2024-01-30T03:44:21;35.05;;;20.45;;
70576;SDS011;58138;43.138;24.702;2024-01-30T03:46:46;35.20;;;20.13;;
70576;SDS011;58138;43.138;24.702;2024-01-30T03:49:12;31.30;;;19.13;;
70576;SDS011;58138;43.138;24.702;2024-01-30T03:51:37;31.17;;;19.90;;
70576;SDS011;58138;43.138;24.702;2024-01-30T03:54:03;37.90;;;20.27;;
70576;SDS011;58138;43.138;24.702;2024-01-30T03:56:29;34.03;;;20.88;;
70576;SDS011;58138;43.138;24.702;2024-01-30T03:58:54;37.45;;;22.92;;
70576;SDS011;58138;43.138;24.702;2024-01-30T04:01:21;32.65;;;20.33;;
70576;SDS011;58138;43.138;24.702;2024-01-30T04:03:46;33.03;;;20.05;;
70576;SDS011;58138;43.138;24.702;2024-01-30T04:06:12;34.30;;;20.17;;
70576;SDS011;58138;43.138;24.702;2024-01-30T04:08:37;35.03;;;20.60;;
70576;SDS011;58138;43.138;24.702;2024-01-30T04:11:06;33.70;;;20.55;;
70576;SDS011;58138;43.138;24.702;2024-01-30T04:13:32;35.53;;;21.02;;
70576;SDS011;58138;43.138;24.702;2024-01-30T04:16:01;39.08;;;22.65;;
70576;SDS011;58138;43.138;24.702;2024-01-30T04:18:27;39.67;;;22.80;;
70576;SDS011;58138;43.138;24.702;2024-01-30T04:20:53;50.22;;;29.50;;
70576;SDS011;58138;43.138;24.702;2024-01-30T04:23:19;37.38;;;22.42;;
70576;SDS011;58138;43.138;24.702;2024-01-30T04:25:44;39.92;;;22.33;;
70576;SDS011;58138;43.138;24.702;2024-01-30T04:28:10;38.60;;;22.08;;
70576;SDS011;58138;43.138;24.702;2024-01-30T04:30:38;37.25;;;22.05;;
70576;SDS011;58138;43.138;24.702;2024-01-30T04:33:04;36.30;;;21.90;;
70576;SDS011;58138;43.138;24.702;2024-01-30T04:35:29;35.67;;;21.90;;
70576;SDS011;58138;43.138;24.702;2024-01-30T04:37:55;37.60;;;23.98;;
70576;SDS011;58138;43.138;24.702;2024-01-30T04:40:21;44.10;;;24.58;;
70576;SDS011;58138;43.138;24.702;2024-01-30T04:42:46;52.72;;;28.48;;
70576;SDS011;58138;43.138;24.702;2024-01-30T04:45:12;44.05;;;25.00;;
70576;SDS011;58138;43.138;24.702;2024-01-30T04:47:37;146.95;;;80.53;;
70576;SDS011;58138;43.138;24.702;2024-01-30T04:50:04;43.15;;;25.50;;
70576;SDS011;58138;43.138;24.702;2024-01-30T04:52:31;39.72;;;23.23;;
70576;SDS011;58138;43.138;24.702;2024-01-30T04:54:57;38.67;;;23.60;;
70576;SDS011;58138;43.138;24.702;2024-01-30T04:57:22;37.58;;;22.95;;
70576;SDS011;58138;43.138;24.702;2024-01-30T04:59:48;36.75;;;22.95;;
70576;SDS011;58138;43.138;24.702;2024-01-30T05:02:13;39.60;;;23.23;;
70576;SDS011;58138;43.138;24.702;2024-01-30T05:04:40;42.08;;;25.17;;
70576;SDS011;58138;43.138;24.702;2024-01-30T05:07:06;46.80;;;27.88;;
70576;SDS011;58138;43.138;24.702;2024-01-30T05:09:32;44.53;;;26.08;;
70576;SDS011;58138;43.138;24.702;2024-01-30T05:11:57;45.55;;;26.83;;
70576;SDS011;58138;43.138;24.702;2024-01-30T05:14:23;39.22;;;25.65;;
70576;SDS011;58138;43.138;24.702;2024-01-30T05:16:49;41.95;;;25.17;;
70576;SDS011;58138;43.138;24.702;2024-01-30T05:19:14;43.13;;;25.27;;
70576;SDS011;58138;43.138;24.702;2024-01-30T05:21:40;39.60;;;24.23;;
70576;SDS011;58138;43.138;24.702;2024-01-30T05:24:06;44.65;;;26.00;;
70576;SDS011;58138;43.138;24.702;2024-01-30T05:26:32;48.90;;;28.38;;
70576;SDS011;58138;43.138;24.702;2024-01-30T05:28:57;51.00;;;31.05;;
70576;SDS011;58138;43.138;24.702;2024-01-30T05:31:23;40.05;;;24.42;;
70576;SDS011;58138;43.138;24.702;2024-01-30T05:33:51;49.90;;;30.40;;
70576;SDS011;58138;43.138;24.702;2024-01-30T05:36:16;48.03;;;26.85;;
70576;SDS011;58138;43.138;24.702;2024-01-30T05:38:42;49.45;;;27.75;;
70576;SDS011;58138;43.138;24.702;2024-01-30T05:41:08;50.40;;;28.90;;
70576;SDS011;58138;43.138;24.702;2024-01-30T05:43:33;51.92;;;29.15;;
70576;SDS011;58138;43.138;24.702;2024-01-30T05:45:59;43.78;;;26.67;;
70576;SDS011;58138;43.138;24.702;2024-01-30T05:48:24;39.38;;;23.30;;
70576;SDS011;58138;43.138;24.702;2024-01-30T05:50:50;87.22;;;52.22;;
70576;SDS011;58138;43.138;24.702;2024-01-30T05:53:15;53.90;;;28.55;;
70576;SDS011;58138;43.138;24.702;2024-01-30T05:55:41;61.45;;;32.45;;
70576;SDS011;58138;43.138;24.702;2024-01-30T05:58:06;46.45;;;27.95;;
70576;SDS011;58138;43.138;24.702;2024-01-30T06:00:32;49.65;;;27.92;;
70576;SDS011;58138;43.138;24.702;2024-01-30T06:02:57;46.33;;;27.27;;
70576;SDS011;58138;43.138;24.702;2024-01-30T06:05:23;46.60;;;25.98;;
70576;SDS011;58138;43.138;24.702;2024-01-30T06:07:48;44.88;;;25.83;;
70576;SDS011;58138;43.138;24.702;2024-01-30T06:10:14;43.80;;;23.92;;
70576;SDS011;58138;43.138;24.702;2024-01-30T06:12:39;42.22;;;23.40;;
70576;SDS011;58138;43.138;24.702;2024-01-30T06:15:07;39.60;;;22.55;;
70576;SDS011;58138;43.138;24.702;2024-01-30T06:17:33;50.15;;;26.33;;
70576;SDS011;58138;43.138;24.702;2024-01-30T06:19:59;52.67;;;27.58;;
70576;SDS011;58138;43.138;24.702;2024-01-30T06:22:24;49.70;;;27.52;;
70576;SDS011;58138;43.138;24.702;2024-01-30T06:24:49;47.70;;;27.20;;
70576;SDS011;58138;43.138;24.702;2024-01-30T06:27:15;48.75;;;26.83;;
70576;SDS011;58138;43.138;24.702;2024-01-30T06:29:42;48.20;;;27.15;;
70576;SDS011;58138;43.138;24.702;2024-01-30T06:32:07;119.57;;;66.40;;
70576;SDS011;58138;43.138;24.702;2024-01-30T06:34:33;67.38;;;38.95;;
70576;SDS011;58138;43.138;24.702;2024-01-30T06:36:58;54.20;;;29.98;;
70576;SDS011;58138;43.138;24.702;2024-01-30T06:39:24;76.55;;;40.78;;
70576;SDS011;58138;43.138;24.702;2024-01-30T06:41:50;48.22;;;29.05;;
70576;SDS011;58138;43.138;24.702;2024-01-30T06:44:15;60.67;;;30.95;;
70576;SDS011;58138;43.138;24.702;2024-01-30T06:46:41;61.10;;;34.40;;
70576;SDS011;58138;43.138;24.702;2024-01-30T06:49:06;60.45;;;33.95;;
70576;SDS011;58138;43.138;24.702;2024-01-30T06:51:32;58.50;;;34.13;;
70576;SDS011;58138;43.138;24.702;2024-01-30T06:53:57;65.05;;;37.45;;
70576;SDS011;58138;43.138;24.702;2024-01-30T06:56:23;140.60;;;85.88;;
70576;SDS011;58138;43.138;24.702;2024-01-30T06:58:48;60.88;;;37.55;;
70576;SDS011;58138;43.138;24.702;2024-01-30T07:01:17;68.13;;;35.67;;
70576;SDS011;58138;43.138;24.702;2024-01-30T07:03:43;55.10;;;30.98;;
70576;SDS011;58138;43.138;24.702;2024-01-30T07:06:09;68.35;;;40.67;;
70576;SDS011;58138;43.138;24.702;2024-01-30T07:08:36;57.17;;;31.48;;
70576;SDS011;58138;43.138;24.702;2024-01-30T07:11:02;38.75;;;23.15;;
70576;SDS011;58138;43.138;24.702;2024-01-30T07:13:28;42.75;;;24.05;;
70576;SDS011;58138;43.138;24.702;2024-01-30T07:15:53;43.83;;;28.48;;
70576;SDS011;58138;43.138;24.702;2024-01-30T07:18:19;59.13;;;34.28;;
70576;SDS011;58138;43.138;24.702;2024-01-30T07:20:44;58.38;;;33.78;;
70576;SDS011;58138;43.138;24.702;2024-01-30T07:23:14;70.40;;;37.85;;
70576;SDS011;58138;43.138;24.702;2024-01-30T07:25:42;64.35;;;36.90;;
70576;SDS011;58138;43.138;24.702;2024-01-30T07:28:10;61.88;;;37.30;;
70576;SDS011;58138;43.138;24.702;2024-01-30T07:30:37;62.50;;;35.25;;
70576;SDS011;58138;43.138;24.702;2024-01-30T07:33:03;59.17;;;35.15;;
70576;SDS011;58138;43.138;24.702;2024-01-30T07:35:28;64.78;;;35.90;;
70576;SDS011;58138;43.138;24.702;2024-01-30T07:37:54;57.05;;;34.67;;
70576;SDS011;58138;43.138;24.702;2024-01-30T07:40:20;62.65;;;35.17;;
70576;SDS011;58138;43.138;24.702;2024-01-30T07:42:45;57.40;;;34.25;;
70576;SDS011;58138;43.138;24.702;2024-01-30T07:45:10;60.85;;;36.45;;
70576;SDS011;58138;43.138;24.702;2024-01-30T07:47:36;70.53;;;38.53;;
70576;SDS011;58138;43.138;24.702;2024-01-30T07:50:01;65.00;;;37.97;;
70576;SDS011;58138;43.138;24.702;2024-01-30T07:52:28;66.03;;;38.00;;
70576;SDS011;58138;43.138;24.702;2024-01-30T07:54:54;71.97;;;42.15;;
70576;SDS011;58138;43.138;24.702;2024-01-30T07:57:20;84.85;;;47.83;;
70576;SDS011;58138;43.138;24.702;2024-01-30T07:59:45;83.78;;;50.55;;
70576;SDS011;58138;43.138;24.702;2024-01-30T08:02:11;74.60;;;46.45;;
70576;SDS011;58138;43.138;24.702;2024-01-30T08:04:37;68.38;;;39.75;;
70576;SDS011;58138;43.138;24.702;2024-01-30T08:07:03;58.67;;;36.58;;
70576;SDS011;58138;43.138;24.702;2024-01-30T08:09:29;122.55;;;56.63;;
70576;SDS011;58138;43.138;24.702;2024-01-30T08:11:54;85.32;;;43.35;;
70576;SDS011;58138;43.138;24.702;2024-01-30T08:14:20;76.63;;;40.05;;
70576;SDS011;58138;43.138;24.702;2024-01-30T08:16:45;65.45;;;36.42;;
70576;SDS011;58138;43.138;24.702;2024-01-30T08:19:11;59.15;;;32.60;;
70576;SDS011;58138;43.138;24.702;2024-01-30T08:21:36;57.88;;;32.45;;
70576;SDS011;58138;43.138;24.702;2024-01-30T08:24:05;54.30;;;31.38;;
70576;SDS011;58138;43.138;24.702;2024-01-30T08:26:32;60.97;;;35.13;;
70576;SDS011;58138;43.138;24.702;2024-01-30T08:28:57;50.90;;;30.02;;
70576;SDS011;58138;43.138;24.702;2024-01-30T08:31:23;52.28;;;29.80;;
70576;SDS011;58138;43.138;24.702;2024-01-30T08:33:49;51.03;;;29.90;;
70576;SDS011;58138;43.138;24.702;2024-01-30T08:36:15;48.20;;;28.38;;
70576;SDS011;58138;43.138;24.702;2024-01-30T08:38:41;48.92;;;27.70;;
70576;SDS011;58138;43.138;24.702;2024-01-30T08:41:07;51.90;;;26.90;;
70576;SDS011;58138;43.138;24.702;2024-01-30T08:43:33;42.65;;;27.13;;
70576;SDS011;58138;43.138;24.702;2024-01-30T08:45:59;45.55;;;27.10;;
70576;SDS011;58138;43.138;24.702;2024-01-30T08:48:25;69.22;;;37.58;;
70576;SDS011;58138;43.138;24.702;2024-01-30T08:50:51;50.72;;;29.38;;
70576;SDS011;58138;43.138;24.702;2024-01-30T08:53:16;56.10;;;31.52;;
70576;SDS011;58138;43.138;24.702;2024-01-30T08:55:42;81.68;;;40.50;;
70576;SDS011;58138;43.138;24.702;2024-01-30T08:58:07;59.47;;;32.95;;
70576;SDS011;58138;43.138;24.702;2024-01-30T09:00:33;46.97;;;26.45;;
70576;SDS011;58138;43.138;24.702;2024-01-30T09:02:58;58.58;;;32.20;;
70576;SDS011;58138;43.138;24.702;2024-01-30T09:05:24;40.88;;;24.25;;
70576;SDS011;58138;43.138;24.702;2024-01-30T09:07:49;46.90;;;27.52;;
70576;SDS011;58138;43.138;24.702;2024-01-30T09:10:15;44.65;;;25.27;;
70576;SDS011;58138;43.138;24.702;2024-01-30T09:12:41;45.25;;;26.50;;
70576;SDS011;58138;43.138;24.702;2024-01-30T09:15:06;40.25;;;22.75;;
70576;SDS011;58138;43.138;24.702;2024-01-30T09:17:32;41.08;;;23.95;;
70576;SDS011;58138;43.138;24.702;2024-01-30T09:19:58;48.95;;;30.88;;
70576;SDS011;58138;43.138;24.702;2024-01-30T09:22:24;33.83;;;21.23;;
70576;SDS011;58138;43.138;24.702;2024-01-30T09:24:49;34.45;;;21.83;;
70576;SDS011;58138;43.138;24.702;2024-01-30T09:27:15;35.88;;;21.17;;
70576;SDS011;58138;43.138;24.702;2024-01-30T09:29:40;75.28;;;45.10;;
70576;SDS011;58138;43.138;24.702;2024-01-30T09:32:06;41.63;;;26.05;;
70576;SDS011;58138;43.138;24.702;2024-01-30T09:34:32;35.92;;;22.55;;
70576;SDS011;58138;43.138;24.702;2024-01-30T09:36:58;41.47;;;23.70;;
70576;SDS011;58138;43.138;24.702;2024-01-30T09:39:25;37.08;;;21.85;;
70576;SDS011;58138;43.138;24.702;2024-01-30T09:42:34;36.03;;;22.45;;
70576;SDS011;58138;43.138;24.702;2024-01-30T09:44:53;35.70;;;23.42;;
70576;SDS011;58138;43.138;24.702;2024-01-30T09:47:19;34.70;;;20.17;;
70576;SDS011;58138;43.138;24.702;2024-01-30T09:49:45;35.13;;;21.55;;
70576;SDS011;58138;43.138;24.702;2024-01-30T09:52:11;33.88;;;20.23;;
70576;SDS011;58138;43.138;24.702;2024-01-30T09:54:37;27.90;;;16.92;;
70576;SDS011;58138;43.138;24.702;2024-01-30T09:57:03;32.13;;;18.50;;
70576;SDS011;58138;43.138;24.702;2024-01-30T09:59:29;34.05;;;20.98;;
70576;SDS011;58138;43.138;24.702;2024-01-30T10:01:55;34.33;;;20.85;;
70576;SDS011;58138;43.138;24.702;2024-01-30T10:04:22;29.95;;;20.85;;
70576;SDS011;58138;43.138;24.702;2024-01-30T10:06:47;34.10;;;20.83;;
70576;SDS011;58138;43.138;24.702;2024-01-30T10:09:13;47.33;;;27.88;;
70576;SDS011;58138;43.138;24.702;2024-01-30T10:11:38;36.03;;;21.75;;
70576;SDS011;58138;43.138;24.702;2024-01-30T10:14:04;35.63;;;22.23;;
70576;SDS011;58138;43.138;24.702;2024-01-30T10:16:29;41.15;;;25.60;;
70576;SDS011;58138;43.138;24.702;2024-01-30T10:18:55;29.85;;;19.17;;
70576;SDS011;58138;43.138;24.702;2024-01-30T10:21:21;40.15;;;21.77;;
70576;SDS011;58138;43.138;24.702;2024-01-30T10:23:46;40.63;;;22.05;;
70576;SDS011;58138;43.138;24.702;2024-01-30T10:26:12;34.67;;;22.58;;
70576;SDS011;58138;43.138;24.702;2024-01-30T10:28:37;35.75;;;22.58;;
70576;SDS011;58138;43.138;24.702;2024-01-30T10:31:03;30.88;;;19.90;;
70576;SDS011;58138;43.138;24.702;2024-01-30T10:33:29;25.40;;;16.95;;
70576;SDS011;58138;43.138;24.702;2024-01-30T10:35:56;31.15;;;17.95;;
70576;SDS011;58138;43.138;24.702;2024-01-30T10:38:26;22.60;;;15.68;;
70576;SDS011;58138;43.138;24.702;2024-01-30T10:40:56;22.27;;;14.88;;
70576;SDS011;58138;43.138;24.702;2024-01-30T10:43:22;28.30;;;17.48;;
70576;SDS011;58138;43.138;24.702;2024-01-30T10:45:49;27.40;;;17.83;;
70576;SDS011;58138;43.138;24.702;2024-01-30T10:48:19;29.80;;;16.95;;
70576;SDS011;58138;43.138;24.702;2024-01-30T10:50:46;25.50;;;14.95;;
70576;SDS011;58138;43.138;24.702;2024-01-30T10:53:12;22.20;;;13.93;;
70576;SDS011;58138;43.138;24.702;2024-01-30T10:55:38;26.25;;;16.10;;
70576;SDS011;58138;43.138;24.702;2024-01-30T10:58:04;28.25;;;17.98;;
70576;SDS011;58138;43.138;24.702;2024-01-30T11:00:30;33.63;;;18.77;;
70576;SDS011;58138;43.138;24.702;2024-01-30T11:02:58;26.33;;;16.55;;
70576;SDS011;58138;43.138;24.702;2024-01-30T11:05:24;19.15;;;12.75;;
70576;SDS011;58138;43.138;24.702;2024-01-30T11:07:52;25.00;;;16.15;;
70576;SDS011;58138;43.138;24.702;2024-01-30T11:10:18;24.27;;;15.30;;
70576;SDS011;58138;43.138;24.702;2024-01-30T11:12:45;20.60;;;10.05;;
70576;SDS011;58138;43.138;24.702;2024-01-30T11:15:18;12.40;;;7.90;;
70576;SDS011;58138;43.138;24.702;2024-01-30T11:20:14;16.83;;;14.30;;
70576;SDS011;58138;43.138;24.702;2024-01-30T11:22:54;16.50;;;10.63;;
70576;SDS011;58138;43.138;24.702;2024-01-30T11:25:21;13.50;;;9.18;;
70576;SDS011;58138;43.138;24.702;2024-01-30T11:27:51;13.60;;;9.05;;
70576;SDS011;58138;43.138;24.702;2024-01-30T11:33:07;14.95;;;10.75;;
70576;SDS011;58138;43.138;24.702;2024-01-30T11:35:36;15.02;;;9.85;;
70576;SDS011;58138;43.138;24.702;2024-01-30T11:38:09;20.15;;;11.48;;
70576;SDS011;58138;43.138;24.702;2024-01-30T11:40:36;21.02;;;12.57;;
70576;SDS011;58138;43.138;24.702;2024-01-30T11:43:03;18.33;;;12.10;;
70576;SDS011;58138;43.138;24.702;2024-01-30T11:45:31;21.83;;;13.38;;
70576;SDS011;58138;43.138;24.702;2024-01-30T11:47:57;20.30;;;12.88;;
70576;SDS011;58138;43.138;24.702;2024-01-30T11:50:25;18.83;;;12.40;;
70576;SDS011;58138;43.138;24.702;2024-01-30T11:52:50;24.13;;;13.10;;
70576;SDS011;58138;43.138;24.702;2024-01-30T11:55:16;15.48;;;9.80;;
70576;SDS011;58138;43.138;24.702;2024-01-30T11:57:42;22.00;;;12.20;;
70576;SDS011;58138;43.138;24.702;2024-01-30T12:00:16;23.27;;;13.50;;
70576;SDS011;58138;43.138;24.702;2024-01-30T12:02:43;17.60;;;10.73;;
70576;SDS011;58138;43.138;24.702;2024-01-30T12:05:09;15.50;;;10.00;;
70576;SDS011;58138;43.138;24.702;2024-01-30T12:07:35;17.58;;;10.93;;
70576;SDS011;58138;43.138;24.702;2024-01-30T12:10:01;14.98;;;9.73;;
70576;SDS011;58138;43.138;24.702;2024-01-30T12:12:27;14.65;;;9.02;;
70576;SDS011;58138;43.138;24.702;2024-01-30T12:14:53;20.17;;;13.45;;
70576;SDS011;58138;43.138;24.702;2024-01-30T12:17:37;20.75;;;11.30;;
70576;SDS011;58138;43.138;24.702;2024-01-30T12:20:03;14.57;;;10.13;;
70576;SDS011;58138;43.138;24.702;2024-01-30T12:22:46;16.17;;;10.40;;
70576;SDS011;58138;43.138;24.702;2024-01-30T12:25:16;17.48;;;11.07;;
70576;SDS011;58138;43.138;24.702;2024-01-30T12:27:43;18.92;;;10.63;;
70576;SDS011;58138;43.138;24.702;2024-01-30T12:30:11;15.93;;;10.30;;
70576;SDS011;58138;43.138;24.702;2024-01-30T12:32:41;20.52;;;10.77;;
70576;SDS011;58138;43.138;24.702;2024-01-30T12:35:09;16.98;;;11.18;;
70576;SDS011;58138;43.138;24.702;2024-01-30T12:37:35;17.52;;;10.80;;
70576;SDS011;58138;43.138;24.702;2024-01-30T12:40:02;20.50;;;11.27;;
70576;SDS011;58138;43.138;24.702;2024-01-30T12:42:27;13.25;;;8.73;;
70576;SDS011;58138;43.138;24.702;2024-01-30T12:44:53;14.27;;;9.77;;
70576;SDS011;58138;43.138;24.702;2024-01-30T12:47:21;14.02;;;9.35;;
70576;SDS011;58138;43.138;24.702;2024-01-30T12:49:46;15.52;;;10.40;;
70576;SDS011;58138;43.138;24.702;2024-01-30T12:52:14;13.13;;;8.98;;
70576;SDS011;58138;43.138;24.702;2024-01-30T12:54:41;13.27;;;9.02;;
70576;SDS011;58138;43.138;24.702;2024-01-30T12:57:06;13.43;;;8.93;;
70576;SDS011;58138;43.138;24.702;2024-01-30T12:59:32;13.95;;;9.48;;
70576;SDS011;58138;43.138;24.702;2024-01-30T13:01:59;14.85;;;9.60;;
70576;SDS011;58138;43.138;24.702;2024-01-30T13:04:25;12.57;;;8.30;;
70576;SDS011;58138;43.138;24.702;2024-01-30T13:06:51;13.93;;;9.43;;
70576;SDS011;58138;43.138;24.702;2024-01-30T13:09:16;18.48;;;12.15;;
70576;SDS011;58138;43.138;24.702;2024-01-30T13:11:42;17.45;;;11.23;;
70576;SDS011;58138;43.138;24.702;2024-01-30T13:14:07;15.48;;;11.02;;
70576;SDS011;58138;43.138;24.702;2024-01-30T13:16:33;17.30;;;10.55;;
70576;SDS011;58138;43.138;24.702;2024-01-30T13:18:58;14.32;;;10.20;;
70576;SDS011;58138;43.138;24.702;2024-01-30T13:21:26;19.75;;;12.93;;
70576;SDS011;58138;43.138;24.702;2024-01-30T13:23:51;17.17;;;10.23;;
70576;SDS011;58138;43.138;24.702;2024-01-30T13:26:19;14.10;;;9.85;;
70576;SDS011;58138;43.138;24.702;2024-01-30T13:28:45;16.58;;;10.60;;
70576;SDS011;58138;43.138;24.702;2024-01-30T13:31:11;14.45;;;9.90;;
70576;SDS011;58138;43.138;24.702;2024-01-30T13:33:36;13.57;;;9.75;;
70576;SDS011;58138;43.138;24.702;2024-01-30T13:36:02;47.15;;;25.75;;
70576;SDS011;58138;43.138;24.702;2024-01-30T13:38:28;13.65;;;9.02;;
70576;SDS011;58138;43.138;24.702;2024-01-30T13:40:53;19.20;;;10.00;;
70576;SDS011;58138;43.138;24.702;2024-01-30T13:43:19;19.52;;;10.85;;
70576;SDS011;58138;43.138;24.702;2024-01-30T13:45:44;25.25;;;9.55;;
70576;SDS011;58138;43.138;24.702;2024-01-30T13:48:11;16.70;;;10.35;;
70576;SDS011;58138;43.138;24.702;2024-01-30T13:50:36;17.90;;;11.32;;
70576;SDS011;58138;43.138;24.702;2024-01-30T13:53:02;22.55;;;13.15;;
70576;SDS011;58138;43.138;24.702;2024-01-30T13:55:29;30.77;;;20.00;;
70576;SDS011;58138;43.138;24.702;2024-01-30T13:57:55;22.55;;;13.55;;
70576;SDS011;58138;43.138;24.702;2024-01-30T14:00:21;33.00;;;17.52;;
70576;SDS011;58138;43.138;24.702;2024-01-30T14:02:47;26.55;;;15.68;;
70576;SDS011;58138;43.138;24.702;2024-01-30T14:05:13;18.48;;;12.30;;
70576;SDS011;58138;43.138;24.702;2024-01-30T14:07:39;21.05;;;14.73;;